createdAt,value
2023-04-30T00:02:13.495Z,4.03
2023-04-30T00:04:40.342Z,3.55
2023-04-30T00:07:07.095Z,3.45
2023-04-30T00:09:33.806Z,3.30
2023-04-30T00:12:00.524Z,3.33
2023-04-30T00:14:27.189Z,3.53
2023-04-30T00:16:53.887Z,3.40
2023-04-30T00:19:20.646Z,3.70
2023-04-30T00:21:47.601Z,3.63
2023-04-30T00:24:14.388Z,3.35
2023-04-30T00:26:42.563Z,3.97
2023-04-30T00:29:09.643Z,3.45
2023-04-30T00:31:36.430Z,4.20
2023-04-30T00:34:03.252Z,3.72
2023-04-30T00:36:30.294Z,3.67
2023-04-30T00:38:57.084Z,3.90
2023-04-30T00:41:25.546Z,3.75
2023-04-30T00:43:52.226Z,3.78
2023-04-30T00:46:18.982Z,3.53
2023-04-30T00:48:45.871Z,3.55
2023-04-30T00:51:12.946Z,3.63
2023-04-30T00:53:41.147Z,3.60
2023-04-30T00:56:09.776Z,4.35
2023-04-30T00:58:36.874Z,4.22
2023-04-30T01:01:04.399Z,4.03
2023-04-30T01:03:31.345Z,3.80
2023-04-30T01:05:58.188Z,3.88
2023-04-30T01:08:25.538Z,4.05
2023-04-30T01:10:58.703Z,4.03
2023-04-30T01:13:32.146Z,4.57
2023-04-30T01:16:18.486Z,4.40
2023-04-30T01:18:59.060Z,4.07
2023-04-30T01:21:30.701Z,3.70
2023-04-30T01:24:29.074Z,3.90
2023-04-30T01:27:05.337Z,4.07
2023-04-30T01:29:34.629Z,4.47
2023-04-30T01:32:02.620Z,4.25
2023-04-30T01:34:29.641Z,4.15
2023-04-30T01:37:11.495Z,4.57
2023-04-30T01:39:58.936Z,4.20
2023-04-30T01:42:54.883Z,4.47
2023-04-30T01:45:53.393Z,4.30
2023-04-30T01:48:42.678Z,4.15
2023-04-30T01:51:19.343Z,4.18
2023-04-30T01:53:47.132Z,3.83
2023-04-30T01:56:29.302Z,4.25
2023-04-30T01:58:56.684Z,4.30
2023-04-30T02:01:32.077Z,4.20
2023-04-30T02:03:59.783Z,4.05
2023-04-30T02:06:28.321Z,4.53
2023-04-30T02:08:56.521Z,4.10
2023-04-30T02:11:24.585Z,4.80
2023-04-30T02:13:51.394Z,5.15
2023-04-30T02:16:18.166Z,4.72
2023-04-30T02:18:46.354Z,4.60
2023-04-30T02:21:14.102Z,4.10
2023-04-30T02:23:41.669Z,4.38
2023-04-30T02:26:08.679Z,4.30
2023-04-30T02:28:36.047Z,4.22
2023-04-30T02:31:02.953Z,4.30
2023-04-30T02:33:29.625Z,4.65
2023-04-30T02:35:56.544Z,4.38
2023-04-30T02:38:25.524Z,4.90
2023-04-30T02:40:52.197Z,3.90
2023-04-30T02:43:18.946Z,4.60
2023-04-30T02:45:45.808Z,4.82
2023-04-30T02:48:13.352Z,5.15
2023-04-30T02:50:40.041Z,4.55
2023-04-30T02:53:06.981Z,4.18
2023-04-30T02:55:33.661Z,5.50
2023-04-30T02:58:00.291Z,4.38
2023-04-30T03:00:27.105Z,4.90
2023-04-30T03:02:53.939Z,4.63
2023-04-30T03:05:20.794Z,4.88
2023-04-30T03:07:47.494Z,4.45
2023-04-30T03:10:14.210Z,4.65
2023-04-30T03:12:41.049Z,4.38
2023-04-30T03:15:08.469Z,5.20
2023-04-30T03:17:35.995Z,4.65
2023-04-30T03:20:02.752Z,4.95
2023-04-30T03:22:29.988Z,4.90
2023-04-30T03:24:56.659Z,4.25
2023-04-30T03:27:23.353Z,4.80
2023-04-30T03:29:50.138Z,4.78
2023-04-30T03:32:16.814Z,4.47
2023-04-30T03:34:43.455Z,5.93
2023-04-30T03:37:10.149Z,4.63
2023-04-30T03:39:36.773Z,4.65
2023-04-30T03:42:03.679Z,4.40
2023-04-30T03:44:30.419Z,5.05
2023-04-30T03:46:57.205Z,4.20
2023-04-30T03:49:23.897Z,4.65
2023-04-30T03:51:50.981Z,5.25
2023-04-30T03:54:17.703Z,4.75
2023-04-30T03:56:44.805Z,4.40
2023-04-30T03:59:11.767Z,5.10
2023-04-30T04:01:38.536Z,4.65
2023-04-30T04:04:05.414Z,5.22
2023-04-30T04:06:33.219Z,5.15
2023-04-30T04:08:59.855Z,4.55
2023-04-30T04:11:26.606Z,4.53
2023-04-30T04:13:53.283Z,5.28
2023-04-30T04:16:20.040Z,4.63
2023-04-30T04:18:46.752Z,5.03
2023-04-30T04:21:13.576Z,5.05
2023-04-30T04:23:40.354Z,5.10
2023-04-30T04:26:07.125Z,5.55
2023-04-30T04:28:33.804Z,4.63
2023-04-30T04:31:00.476Z,5.32
2023-04-30T04:33:27.707Z,4.70
2023-04-30T04:35:54.780Z,5.30
2023-04-30T04:38:21.443Z,4.53
2023-04-30T04:40:53.196Z,4.85
2023-04-30T04:43:20.675Z,4.80
2023-04-30T04:45:50.352Z,5.35
2023-04-30T04:48:17.113Z,5.35
2023-04-30T04:50:43.830Z,5.15
2023-04-30T04:53:10.787Z,4.88
2023-04-30T04:55:37.855Z,4.88
2023-04-30T04:58:04.591Z,5.80
2023-04-30T05:00:31.276Z,5.10
2023-04-30T05:02:58.635Z,4.90
2023-04-30T05:05:25.431Z,5.13
2023-04-30T05:07:54.788Z,5.55
2023-04-30T05:10:21.837Z,5.40
2023-04-30T05:12:48.546Z,4.97
2023-04-30T05:15:15.357Z,5.18
2023-04-30T05:17:42.187Z,4.72
2023-04-30T05:20:09.666Z,4.88
2023-04-30T05:22:36.427Z,4.70
2023-04-30T05:25:03.309Z,4.82
2023-04-30T05:27:30.330Z,4.60
2023-04-30T05:29:57.226Z,4.47
2023-04-30T05:32:24.106Z,5.22
2023-04-30T05:34:50.879Z,4.75
2023-04-30T05:37:19.418Z,4.50
2023-04-30T05:39:46.648Z,5.13
2023-04-30T05:42:13.250Z,4.05
2023-04-30T05:44:41.139Z,4.60
2023-04-30T05:47:07.850Z,5.25
2023-04-30T05:49:36.005Z,5.20
2023-04-30T05:52:03.593Z,4.80
2023-04-30T05:54:31.168Z,4.40
2023-04-30T05:56:57.888Z,4.15
2023-04-30T05:59:24.793Z,3.90
2023-04-30T06:01:51.942Z,4.57
2023-04-30T06:04:18.662Z,4.68
2023-04-30T06:06:45.669Z,3.60
2023-04-30T06:09:12.586Z,3.72
2023-04-30T06:11:41.644Z,3.63
2023-04-30T06:14:10.262Z,3.38
2023-04-30T06:16:37.066Z,3.47
2023-04-30T06:19:03.762Z,2.90
2023-04-30T06:21:30.618Z,3.30
2023-04-30T06:23:57.320Z,4.47
2023-04-30T06:26:24.001Z,3.35
2023-04-30T06:28:50.775Z,2.75
2023-04-30T06:31:17.422Z,3.95
2023-04-30T06:33:44.190Z,3.28
2023-04-30T06:36:10.940Z,2.95
2023-04-30T06:38:37.627Z,3.28
2023-04-30T06:41:04.327Z,2.60
2023-04-30T06:43:31.135Z,2.65
2023-04-30T06:45:57.886Z,2.83
2023-04-30T06:48:24.628Z,2.30
2023-04-30T06:50:51.304Z,2.28
2023-04-30T06:53:18.012Z,2.50
2023-04-30T06:55:46.505Z,2.10
2023-04-30T06:58:13.463Z,2.30
2023-04-30T07:00:40.484Z,1.70
2023-04-30T07:03:07.244Z,2.30
2023-04-30T07:05:34.005Z,2.00
2023-04-30T07:08:03.501Z,2.70
2023-04-30T07:10:31.444Z,2.00
2023-04-30T07:12:58.519Z,2.13
2023-04-30T07:15:25.242Z,1.52
2023-04-30T07:17:52.033Z,1.65
2023-04-30T07:20:18.806Z,2.17
2023-04-30T07:22:46.148Z,2.00
2023-04-30T07:25:16.675Z,1.95
2023-04-30T07:27:43.429Z,1.90
2023-04-30T07:30:10.608Z,2.05
2023-04-30T07:32:38.145Z,2.17
2023-04-30T07:35:05.374Z,2.58
2023-04-30T07:37:34.281Z,2.42
2023-04-30T07:40:03.365Z,1.92
2023-04-30T07:42:30.084Z,2.05
2023-04-30T07:44:57.424Z,2.13
2023-04-30T07:47:25.406Z,2.13
2023-04-30T07:49:52.159Z,2.20
2023-04-30T07:52:19.144Z,1.90
2023-04-30T07:54:45.819Z,2.00
2023-04-30T07:57:13.040Z,1.98
2023-04-30T07:59:39.755Z,1.92
2023-04-30T08:02:06.955Z,1.70
2023-04-30T08:04:33.666Z,1.85
2023-04-30T08:07:01.782Z,2.00
2023-04-30T08:09:28.514Z,1.80
2023-04-30T08:11:55.521Z,2.00
2023-04-30T08:14:22.471Z,1.70
2023-04-30T08:16:49.188Z,1.95
2023-04-30T08:19:15.877Z,1.90
2023-04-30T08:21:42.674Z,1.55
2023-04-30T08:24:09.379Z,1.60
2023-04-30T08:26:36.011Z,1.55
2023-04-30T08:29:02.690Z,1.55
2023-04-30T08:31:29.477Z,1.70
2023-04-30T08:33:56.200Z,1.52
2023-04-30T08:36:23.011Z,1.70
2023-04-30T08:38:49.683Z,1.50
2023-04-30T08:41:16.360Z,1.42
2023-04-30T08:43:45.125Z,1.33
2023-04-30T08:46:13.743Z,1.60
2023-04-30T08:48:41.543Z,1.75
2023-04-30T08:51:11.056Z,1.63
2023-04-30T08:53:38.379Z,1.55
2023-04-30T08:56:05.804Z,1.73
2023-04-30T08:58:32.980Z,1.65
2023-04-30T09:01:01.097Z,1.90
2023-04-30T09:03:28.509Z,1.73
2023-04-30T09:05:55.746Z,1.50
2023-04-30T09:08:41.807Z,1.50
2023-04-30T09:11:28.840Z,1.73
2023-04-30T09:14:00.339Z,1.45
2023-04-30T09:16:32.984Z,1.70
2023-04-30T09:19:00.099Z,1.55
2023-04-30T09:21:34.506Z,1.45
2023-04-30T09:24:03.615Z,1.55
2023-04-30T09:26:37.891Z,1.35
2023-04-30T09:29:08.444Z,2.10
2023-04-30T09:31:36.617Z,1.50
2023-04-30T09:34:04.546Z,1.40
2023-04-30T09:36:31.718Z,1.42
2023-04-30T09:39:17.324Z,1.95
2023-04-30T09:41:44.536Z,1.80
2023-04-30T09:44:31.406Z,1.77
2023-04-30T09:47:01.258Z,1.63
2023-04-30T09:49:28.182Z,1.40
2023-04-30T09:51:59.724Z,1.73
2023-04-30T09:54:29.350Z,1.35
2023-04-30T09:57:01.453Z,2.05
2023-04-30T09:59:35.263Z,1.70
2023-04-30T10:02:14.631Z,1.60
2023-04-30T10:04:45.835Z,1.52
2023-04-30T10:07:17.116Z,1.63
2023-04-30T10:10:07.437Z,1.75
2023-04-30T10:12:48.478Z,1.80
2023-04-30T10:15:22.894Z,1.40
2023-04-30T10:18:17.768Z,1.40
2023-04-30T10:20:47.961Z,1.52
2023-04-30T10:23:15.247Z,1.35
2023-04-30T10:25:43.692Z,1.67
2023-04-30T10:28:11.547Z,1.50
2023-04-30T10:30:38.334Z,1.70
2023-04-30T10:33:19.964Z,1.25
2023-04-30T10:35:57.321Z,1.60
2023-04-30T10:38:27.401Z,1.38
2023-04-30T10:40:59.091Z,1.30
2023-04-30T10:43:26.860Z,2.00
2023-04-30T10:45:53.918Z,1.33
2023-04-30T10:48:26.869Z,1.63
2023-04-30T10:50:57.005Z,1.42
2023-04-30T10:53:26.172Z,1.83
2023-04-30T10:56:00.373Z,1.70
2023-04-30T10:58:29.773Z,2.20
2023-04-30T11:01:11.269Z,1.75
2023-04-30T11:03:40.070Z,1.50
2023-04-30T11:06:13.233Z,1.70
2023-04-30T11:08:44.080Z,1.70
2023-04-30T11:11:12.100Z,1.50
2023-04-30T11:13:40.955Z,1.55
2023-04-30T11:16:07.978Z,1.70
2023-04-30T11:18:34.983Z,1.60
2023-04-30T11:21:02.898Z,1.67
2023-04-30T11:23:39.439Z,1.98
2023-04-30T11:26:08.483Z,1.80
2023-04-30T11:28:37.528Z,1.85
2023-04-30T11:31:05.421Z,1.63
2023-04-30T11:33:33.872Z,2.20
2023-04-30T11:36:02.129Z,1.67
2023-04-30T11:38:36.257Z,2.03
2023-04-30T11:41:04.684Z,2.15
2023-04-30T11:43:33.397Z,1.70
2023-04-30T11:46:26.226Z,1.65
2023-04-30T11:48:52.924Z,1.70
2023-04-30T11:51:26.996Z,1.70
2023-04-30T11:53:53.948Z,2.00
2023-04-30T11:56:25.609Z,1.75
2023-04-30T11:58:53.821Z,1.60
2023-04-30T12:01:20.962Z,1.73
2023-04-30T12:03:49.985Z,1.80
2023-04-30T12:06:28.698Z,2.15
2023-04-30T12:08:57.034Z,2.08
2023-04-30T12:11:26.341Z,2.20
2023-04-30T12:14:10.921Z,1.77
2023-04-30T12:16:52.388Z,1.85
2023-04-30T12:19:21.175Z,1.70
2023-04-30T12:21:49.035Z,1.75
2023-04-30T12:24:19.450Z,1.58
2023-04-30T12:26:46.662Z,1.92
2023-04-30T12:29:17.120Z,1.63
2023-04-30T12:31:45.584Z,1.88
2023-04-30T12:34:13.816Z,1.85
2023-04-30T12:36:44.573Z,1.80
2023-04-30T12:39:16.315Z,1.45
2023-04-30T12:41:44.048Z,1.70
2023-04-30T12:44:21.309Z,1.70
2023-04-30T12:46:50.542Z,1.80
2023-04-30T12:49:33.481Z,1.73
2023-04-30T12:52:00.958Z,1.67
2023-04-30T12:54:29.702Z,1.70
2023-04-30T12:57:04.746Z,1.30
2023-04-30T12:59:32.901Z,1.25
2023-04-30T13:02:10.899Z,1.30
2023-04-30T13:04:37.808Z,1.33
2023-04-30T13:07:04.904Z,1.50
2023-04-30T13:09:34.680Z,1.52
2023-04-30T13:12:01.755Z,1.20
2023-04-30T13:14:28.610Z,1.00
2023-04-30T13:16:55.686Z,1.00
2023-04-30T13:19:22.343Z,1.23
2023-04-30T13:21:49.008Z,1.10
2023-04-30T13:24:16.135Z,1.08
2023-04-30T13:26:42.866Z,1.17
2023-04-30T13:29:09.543Z,1.20
2023-04-30T13:31:36.397Z,1.23
2023-04-30T13:34:03.152Z,1.15
2023-04-30T13:36:29.921Z,1.10
2023-04-30T13:38:57.477Z,1.10
2023-04-30T13:41:24.167Z,1.20
2023-04-30T13:43:50.767Z,0.90
2023-04-30T13:46:17.626Z,0.80
2023-04-30T13:48:48.015Z,1.33
2023-04-30T13:51:14.700Z,0.70
2023-04-30T13:53:41.382Z,0.60
2023-04-30T13:56:08.076Z,0.93
2023-04-30T13:58:34.762Z,1.00
2023-04-30T14:01:01.524Z,1.23
2023-04-30T14:03:28.368Z,0.90
2023-04-30T14:05:55.232Z,0.80
2023-04-30T14:08:23.455Z,0.88
2023-04-30T14:10:50.263Z,1.08
2023-04-30T14:13:17.925Z,1.10
2023-04-30T14:15:44.666Z,0.90
2023-04-30T14:18:12.218Z,0.90
2023-04-30T14:20:39.320Z,1.10
2023-04-30T14:23:06.217Z,1.33
2023-04-30T14:25:32.959Z,1.00
2023-04-30T14:27:59.603Z,1.10
2023-04-30T14:30:26.435Z,1.02
2023-04-30T14:32:53.128Z,0.90
2023-04-30T14:35:19.852Z,0.77
2023-04-30T14:37:46.712Z,0.65
2023-04-30T14:40:13.828Z,0.90
2023-04-30T14:42:40.646Z,0.60
2023-04-30T14:45:08.143Z,0.80
2023-04-30T14:47:34.807Z,0.70
2023-04-30T14:50:02.520Z,0.70
2023-04-30T14:52:29.234Z,1.42
2023-04-30T14:54:56.137Z,1.02
2023-04-30T14:57:23.541Z,0.80
2023-04-30T14:59:52.539Z,0.68
2023-04-30T15:02:21.321Z,1.23
2023-04-30T15:04:48.303Z,1.05
2023-04-30T15:07:15.057Z,0.85
2023-04-30T15:09:41.691Z,1.00
2023-04-30T15:12:08.403Z,0.90
2023-04-30T15:14:35.137Z,0.63
2023-04-30T15:17:01.989Z,0.88
2023-04-30T15:19:30.043Z,0.63
2023-04-30T15:21:56.660Z,0.85
2023-04-30T15:24:23.388Z,0.95
2023-04-30T15:26:52.537Z,0.80
2023-04-30T15:29:19.160Z,1.00
2023-04-30T15:31:45.957Z,1.10
2023-04-30T15:34:12.704Z,1.65
2023-04-30T15:36:39.569Z,0.82
2023-04-30T15:39:06.400Z,0.90
2023-04-30T15:41:33.083Z,0.82
2023-04-30T15:43:59.815Z,0.98
2023-04-30T15:46:26.545Z,1.10
2023-04-30T15:48:53.265Z,0.70
2023-04-30T15:51:20.000Z,0.70
2023-04-30T15:53:46.640Z,0.75
2023-04-30T15:56:13.365Z,0.60
2023-04-30T15:58:40.152Z,0.80
2023-04-30T16:01:06.811Z,0.63
2023-04-30T16:03:33.733Z,0.60
2023-04-30T16:06:00.943Z,0.73
2023-04-30T16:08:27.829Z,0.90
2023-04-30T16:10:54.553Z,0.70
2023-04-30T16:13:21.161Z,0.80
2023-04-30T16:15:47.765Z,0.70
2023-04-30T16:18:14.437Z,1.05
2023-04-30T16:20:42.592Z,1.13
2023-04-30T16:23:09.266Z,0.73
2023-04-30T16:25:35.862Z,1.27
2023-04-30T16:28:02.470Z,1.10
2023-04-30T16:30:29.102Z,1.08
2023-04-30T16:32:55.951Z,1.30
2023-04-30T16:35:22.668Z,1.05
2023-04-30T16:37:49.364Z,0.80
2023-04-30T16:40:16.960Z,1.27
2023-04-30T16:42:43.995Z,1.10
2023-04-30T16:45:10.776Z,1.58
2023-04-30T16:47:37.453Z,1.23
2023-04-30T16:50:04.614Z,1.10
2023-04-30T16:52:31.692Z,1.10
2023-04-30T16:54:58.327Z,1.00
2023-04-30T16:57:27.726Z,1.05
2023-04-30T16:59:54.635Z,1.15
2023-04-30T17:02:21.494Z,1.10
2023-04-30T17:04:48.263Z,0.82
2023-04-30T17:07:16.207Z,0.80
2023-04-30T17:09:42.961Z,1.33
2023-04-30T17:12:09.655Z,1.17
2023-04-30T17:14:36.329Z,1.10
2023-04-30T17:17:03.096Z,0.93
2023-04-30T17:19:29.805Z,1.02
2023-04-30T17:21:56.574Z,0.82
2023-04-30T17:24:24.151Z,0.93
2023-04-30T17:26:51.491Z,1.08
2023-04-30T17:29:19.633Z,1.10
2023-04-30T17:31:46.967Z,0.75
2023-04-30T17:34:13.767Z,0.80
2023-04-30T17:36:40.478Z,0.70
2023-04-30T17:39:07.100Z,1.20
2023-04-30T17:41:33.998Z,0.82
2023-04-30T17:44:00.683Z,0.90
2023-04-30T17:46:27.480Z,0.88
2023-04-30T17:48:54.230Z,1.30
2023-04-30T17:51:21.235Z,1.10
2023-04-30T17:53:47.822Z,1.55
2023-04-30T17:56:15.060Z,1.00
2023-04-30T17:58:41.743Z,1.00
2023-04-30T18:01:08.624Z,1.00
2023-04-30T18:03:36.304Z,1.08
2023-04-30T18:06:03.809Z,1.10
2023-04-30T18:08:30.812Z,0.90
2023-04-30T18:10:57.672Z,0.65
2023-04-30T18:13:24.362Z,1.10
2023-04-30T18:15:51.435Z,0.85
2023-04-30T18:18:18.397Z,1.20
2023-04-30T18:20:45.749Z,0.80
2023-04-30T18:23:13.376Z,0.95
2023-04-30T18:25:40.769Z,0.75
2023-04-30T18:28:10.362Z,1.20
2023-04-30T18:30:37.438Z,1.10
2023-04-30T18:33:04.893Z,1.17
2023-04-30T18:35:32.660Z,1.10
2023-04-30T18:37:59.859Z,1.20
2023-04-30T18:40:26.664Z,1.17
2023-04-30T18:42:54.393Z,1.52
2023-04-30T18:45:21.571Z,1.02
2023-04-30T18:47:48.263Z,1.95
2023-04-30T18:50:17.897Z,1.30
2023-04-30T18:52:45.079Z,1.65
2023-04-30T18:55:13.816Z,1.63
2023-04-30T18:57:42.539Z,1.92
2023-04-30T19:00:12.133Z,2.13
2023-04-30T19:02:38.930Z,1.63
2023-04-30T19:05:05.913Z,1.30
2023-04-30T19:07:33.175Z,1.27
2023-04-30T19:09:59.928Z,1.45
2023-04-30T19:12:26.598Z,1.40
2023-04-30T19:14:53.287Z,1.90
2023-04-30T19:17:21.654Z,1.50
2023-04-30T19:19:49.922Z,1.63
2023-04-30T19:22:17.180Z,1.77
2023-04-30T19:24:43.946Z,1.90
2023-04-30T19:27:11.121Z,1.55
2023-04-30T19:29:39.235Z,1.63
2023-04-30T19:32:06.383Z,1.80
2023-04-30T19:34:33.130Z,1.58
2023-04-30T19:37:00.418Z,1.10
2023-04-30T19:39:34.610Z,1.63
2023-04-30T19:42:01.624Z,1.55
2023-04-30T19:44:29.421Z,1.38
2023-04-30T19:46:56.469Z,1.35
2023-04-30T19:49:26.563Z,1.15
2023-04-30T19:51:54.375Z,1.85
2023-04-30T19:54:21.225Z,1.83
2023-04-30T19:56:47.931Z,1.50
2023-04-30T19:59:14.852Z,1.48
2023-04-30T20:01:42.352Z,1.45
2023-04-30T20:04:09.677Z,1.35
2023-04-30T20:06:36.522Z,1.83
2023-04-30T20:09:03.438Z,1.40
2023-04-30T20:11:30.515Z,1.60
2023-04-30T20:13:57.630Z,2.10
2023-04-30T20:16:24.437Z,1.17
2023-04-30T20:18:51.193Z,1.25
2023-04-30T20:21:20.544Z,1.40
2023-04-30T20:23:47.770Z,1.27
2023-04-30T20:26:14.441Z,1.73
2023-04-30T20:28:41.274Z,1.27
2023-04-30T20:31:09.861Z,1.52
2023-04-30T20:33:36.584Z,1.40
2023-04-30T20:36:03.340Z,1.30
2023-04-30T20:38:29.995Z,2.58
2023-04-30T20:40:59.552Z,1.80
2023-04-30T20:43:26.656Z,1.63
2023-04-30T20:45:58.773Z,1.80
2023-04-30T20:48:26.638Z,1.67
2023-04-30T20:50:53.326Z,1.75
2023-04-30T20:53:20.046Z,1.73
2023-04-30T20:55:46.697Z,1.83
2023-04-30T20:58:13.336Z,1.70
2023-04-30T21:00:40.096Z,1.85
2023-04-30T21:03:07.021Z,1.90
2023-04-30T21:05:34.132Z,2.30
2023-04-30T21:08:01.971Z,3.17
2023-04-30T21:10:35.224Z,3.30
2023-04-30T21:13:04.871Z,3.20
2023-04-30T21:15:32.420Z,3.20
2023-04-30T21:17:59.181Z,2.40
2023-04-30T21:20:25.926Z,2.42
2023-04-30T21:22:54.912Z,2.80
2023-04-30T21:25:22.062Z,2.67
2023-04-30T21:27:48.979Z,1.92
2023-04-30T21:30:16.926Z,2.05
2023-04-30T21:32:47.211Z,2.50
2023-04-30T21:35:14.485Z,1.80
2023-04-30T21:37:41.939Z,2.03
2023-04-30T21:40:09.104Z,2.10
2023-04-30T21:42:35.908Z,2.65
2023-04-30T21:45:02.897Z,2.08
2023-04-30T21:47:30.352Z,2.40
2023-04-30T21:49:58.622Z,2.30
2023-04-30T21:52:25.630Z,2.60
2023-04-30T21:54:52.278Z,2.30
2023-04-30T21:57:19.447Z,2.42
2023-04-30T21:59:46.252Z,2.70
2023-04-30T22:04:47.591Z,2.42
2023-04-30T22:07:14.338Z,2.45
2023-04-30T22:09:41.040Z,2.20
2023-04-30T22:12:09.078Z,2.40
2023-04-30T22:14:35.809Z,2.55
2023-04-30T22:17:02.638Z,2.38
2023-04-30T22:19:29.423Z,2.65
2023-04-30T22:21:56.082Z,2.25
2023-04-30T22:24:22.773Z,1.98
2023-04-30T22:26:49.721Z,2.08
2023-04-30T22:29:16.428Z,2.22
2023-04-30T22:31:43.132Z,2.00
2023-04-30T22:34:10.043Z,2.00
2023-04-30T22:36:36.917Z,2.53
2023-04-30T22:39:03.975Z,2.58
2023-04-30T22:41:30.770Z,2.35
2023-04-30T22:43:57.471Z,2.22
2023-04-30T22:46:24.225Z,2.10
2023-04-30T22:48:51.010Z,1.95
2023-04-30T22:51:18.069Z,2.50
2023-04-30T22:53:44.978Z,2.20
2023-04-30T22:56:12.040Z,1.98
2023-04-30T22:58:38.751Z,2.17
2023-04-30T23:01:05.450Z,2.47
2023-04-30T23:03:32.119Z,2.13
2023-04-30T23:05:59.639Z,2.40
2023-04-30T23:08:26.346Z,2.30
2023-04-30T23:10:54.413Z,2.30
2023-04-30T23:13:21.201Z,2.15
2023-04-30T23:15:48.544Z,2.00
2023-04-30T23:18:15.332Z,2.53
2023-04-30T23:20:42.106Z,2.05
2023-04-30T23:23:08.749Z,2.20
2023-04-30T23:25:35.506Z,2.53
2023-04-30T23:28:02.124Z,2.35
2023-04-30T23:30:28.872Z,2.15
2023-04-30T23:32:55.675Z,2.55
2023-04-30T23:35:22.451Z,2.22
2023-04-30T23:37:49.176Z,2.97
2023-04-30T23:40:15.856Z,2.83
2023-04-30T23:42:42.518Z,3.15
2023-04-30T23:45:09.776Z,2.92
2023-04-30T23:47:36.682Z,3.00
2023-04-30T23:50:04.031Z,2.95
2023-04-30T23:52:31.494Z,2.67
2023-04-30T23:54:58.190Z,2.67
2023-04-30T23:57:27.409Z,2.90
2023-04-30T23:59:54.947Z,2.90
